sensor_id;sensor_type;location;lat;lon;timestamp;pressure;altitude;pressure_sealevel;temperature;humidity
59063;BME280;44851;45.648;9.004;2023-04-29T00:01:49;98860.09;;;17.48;56.84
59063;BME280;44851;45.648;9.004;2023-04-29T00:04:15;98854.66;;;17.35;56.66
59063;BME280;44851;45.648;9.004;2023-04-29T00:06:41;98863.56;;;17.34;56.59
59063;BME280;44851;45.648;9.004;2023-04-29T00:09:06;98858.13;;;17.35;56.76
59063;BME280;44851;45.648;9.004;2023-04-29T00:11:32;98859.56;;;17.38;56.66
59063;BME280;44851;45.648;9.004;2023-04-29T00:13:58;98856.63;;;17.26;56.72
59063;BME280;44851;45.648;9.004;2023-04-29T00:16:23;98866.44;;;17.18;57.20
59063;BME280;44851;45.648;9.004;2023-04-29T00:18:49;98857.78;;;17.24;57.02
59063;BME280;44851;45.648;9.004;2023-04-29T00:21:15;98854.16;;;17.25;57.09
59063;BME280;44851;45.648;9.004;2023-04-29T00:23:40;98852.81;;;17.14;56.77
59063;BME280;44851;45.648;9.004;2023-04-29T00:26:06;98844.00;;;17.22;57.56
59063;BME280;44851;45.648;9.004;2023-04-29T00:28:31;98847.53;;;17.14;57.13
59063;BME280;44851;45.648;9.004;2023-04-29T00:30:57;98846.38;;;17.17;58.06
59063;BME280;44851;45.648;9.004;2023-04-29T00:33:22;98845.56;;;17.16;57.91
59063;BME280;44851;45.648;9.004;2023-04-29T00:35:48;98838.91;;;17.05;57.33
59063;BME280;44851;45.648;9.004;2023-04-29T00:38:13;98842.28;;;17.14;58.02
59063;BME280;44851;45.648;9.004;2023-04-29T00:40:39;98843.75;;;17.17;57.93
59063;BME280;44851;45.648;9.004;2023-04-29T00:43:04;98840.66;;;17.13;57.56
59063;BME280;44851;45.648;9.004;2023-04-29T00:45:29;98835.84;;;17.17;57.47
59063;BME280;44851;45.648;9.004;2023-04-29T00:47:55;98832.75;;;16.98;58.05
59063;BME280;44851;45.648;9.004;2023-04-29T00:50:21;98846.66;;;16.92;58.41
59063;BME280;44851;45.648;9.004;2023-04-29T00:52:47;98842.47;;;16.83;58.13
59063;BME280;44851;45.648;9.004;2023-04-29T00:55:13;98840.03;;;16.96;58.16
59063;BME280;44851;45.648;9.004;2023-04-29T00:57:38;98842.91;;;17.01;58.64
59063;BME280;44851;45.648;9.004;2023-04-29T01:00:05;98840.84;;;16.82;58.03
59063;BME280;44851;45.648;9.004;2023-04-29T01:02:30;98845.03;;;16.76;58.61
59063;BME280;44851;45.648;9.004;2023-04-29T01:04:56;98843.88;;;16.79;59.05
59063;BME280;44851;45.648;9.004;2023-04-29T01:07:44;98845.75;;;16.70;57.64
59063;BME280;44851;45.648;9.004;2023-04-29T01:10:23;98851.66;;;16.72;58.10
59063;BME280;44851;45.648;9.004;2023-04-29T01:18:20;98836.31;;;16.61;58.26
59063;BME280;44851;45.648;9.004;2023-04-29T01:20:49;98843.13;;;16.55;59.74
59063;BME280;44851;45.648;9.004;2023-04-29T01:23:15;98851.47;;;16.44;59.39
59063;BME280;44851;45.648;9.004;2023-04-29T01:25:41;98844.59;;;16.43;59.67
59063;BME280;44851;45.648;9.004;2023-04-29T01:33:26;98823.19;;;16.46;59.69
59063;BME280;44851;45.648;9.004;2023-04-29T01:38:48;98841.16;;;16.57;59.39
59063;BME280;44851;45.648;9.004;2023-04-29T01:41:26;98846.75;;;16.54;59.59
59063;BME280;44851;45.648;9.004;2023-04-29T01:43:57;98847.50;;;16.48;59.16
59063;BME280;44851;45.648;9.004;2023-04-29T01:46:23;98842.13;;;16.56;59.57
59063;BME280;44851;45.648;9.004;2023-04-29T01:48:52;98856.94;;;16.57;60.24
59063;BME280;44851;45.648;9.004;2023-04-29T01:51:18;98861.66;;;16.47;59.80
59063;BME280;44851;45.648;9.004;2023-04-29T01:53:43;98849.13;;;16.49;59.85
59063;BME280;44851;45.648;9.004;2023-04-29T01:56:09;98833.25;;;16.43;58.95
59063;BME280;44851;45.648;9.004;2023-04-29T01:58:34;98830.09;;;16.47;59.31
59063;BME280;44851;45.648;9.004;2023-04-29T02:01:00;98830.91;;;16.48;59.47
59063;BME280;44851;45.648;9.004;2023-04-29T02:03:25;98829.53;;;16.37;59.79
59063;BME280;44851;45.648;9.004;2023-04-29T02:05:51;98831.22;;;16.30;59.60
59063;BME280;44851;45.648;9.004;2023-04-29T02:08:16;98825.91;;;16.38;59.69
59063;BME280;44851;45.648;9.004;2023-04-29T02:10:53;98821.38;;;16.32;59.04
59063;BME280;44851;45.648;9.004;2023-04-29T02:13:19;98806.47;;;16.39;60.25
59063;BME280;44851;45.648;9.004;2023-04-29T02:15:45;98801.59;;;16.36;59.80
59063;BME280;44851;45.648;9.004;2023-04-29T02:18:10;98817.66;;;16.41;60.27
59063;BME280;44851;45.648;9.004;2023-04-29T02:20:35;98833.03;;;16.29;59.58
59063;BME280;44851;45.648;9.004;2023-04-29T02:23:01;98821.66;;;16.37;60.77
59063;BME280;44851;45.648;9.004;2023-04-29T02:25:26;98811.66;;;16.32;60.32
59063;BME280;44851;45.648;9.004;2023-04-29T02:27:52;98823.00;;;16.33;60.11
59063;BME280;44851;45.648;9.004;2023-04-29T02:30:17;98824.28;;;16.37;59.58
59063;BME280;44851;45.648;9.004;2023-04-29T02:32:42;98816.09;;;16.32;59.48
59063;BME280;44851;45.648;9.004;2023-04-29T02:35:08;98812.13;;;16.36;59.52
59063;BME280;44851;45.648;9.004;2023-04-29T02:37:33;98819.81;;;16.38;59.56
59063;BME280;44851;45.648;9.004;2023-04-29T02:40:00;98819.47;;;16.26;59.61
59063;BME280;44851;45.648;9.004;2023-04-29T02:42:26;98809.00;;;16.18;60.24
59063;BME280;44851;45.648;9.004;2023-04-29T02:44:51;98808.69;;;16.13;60.32
59063;BME280;44851;45.648;9.004;2023-04-29T02:47:17;98822.31;;;16.16;60.44
59063;BME280;44851;45.648;9.004;2023-04-29T02:49:42;98822.38;;;16.08;60.19
59063;BME280;44851;45.648;9.004;2023-04-29T02:52:08;98814.97;;;16.12;60.61
59063;BME280;44851;45.648;9.004;2023-04-29T02:54:33;98815.50;;;16.07;60.27
59063;BME280;44851;45.648;9.004;2023-04-29T02:56:59;98821.22;;;16.11;60.13
59063;BME280;44851;45.648;9.004;2023-04-29T02:59:24;98824.44;;;16.21;60.57
59063;BME280;44851;45.648;9.004;2023-04-29T03:01:49;98828.38;;;16.17;60.45
59063;BME280;44851;45.648;9.004;2023-04-29T03:04:15;98818.53;;;16.19;60.68
59063;BME280;44851;45.648;9.004;2023-04-29T03:06:40;98813.34;;;16.11;60.39
59063;BME280;44851;45.648;9.004;2023-04-29T03:09:07;98809.84;;;15.95;60.56
59063;BME280;44851;45.648;9.004;2023-04-29T03:11:33;98820.38;;;15.95;60.44
59063;BME280;44851;45.648;9.004;2023-04-29T03:13:58;98821.66;;;15.99;60.99
59063;BME280;44851;45.648;9.004;2023-04-29T03:16:25;98828.63;;;16.07;61.16
59063;BME280;44851;45.648;9.004;2023-04-29T03:18:52;98814.84;;;15.90;60.97
59063;BME280;44851;45.648;9.004;2023-04-29T03:21:18;98813.50;;;15.94;61.35
59063;BME280;44851;45.648;9.004;2023-04-29T03:23:43;98810.00;;;15.79;60.77
59063;BME280;44851;45.648;9.004;2023-04-29T03:26:09;98811.28;;;15.83;61.57
59063;BME280;44851;45.648;9.004;2023-04-29T03:28:37;98807.56;;;15.92;61.53
59063;BME280;44851;45.648;9.004;2023-04-29T03:31:03;98808.31;;;16.01;61.54
59063;BME280;44851;45.648;9.004;2023-04-29T03:33:28;98805.03;;;15.84;61.72
59063;BME280;44851;45.648;9.004;2023-04-29T03:35:54;98795.16;;;15.86;61.11
59063;BME280;44851;45.648;9.004;2023-04-29T03:38:20;98789.56;;;15.89;61.70
59063;BME280;44851;45.648;9.004;2023-04-29T03:40:45;98781.00;;;15.87;61.39
59063;BME280;44851;45.648;9.004;2023-04-29T03:43:11;98780.59;;;15.98;61.84
59063;BME280;44851;45.648;9.004;2023-04-29T03:45:38;98770.81;;;16.07;61.35
59063;BME280;44851;45.648;9.004;2023-04-29T03:48:03;98780.16;;;16.09;61.41
59063;BME280;44851;45.648;9.004;2023-04-29T03:50:29;98775.59;;;16.03;60.62
59063;BME280;44851;45.648;9.004;2023-04-29T03:52:55;98773.97;;;16.02;60.84
59063;BME280;44851;45.648;9.004;2023-04-29T03:55:22;98774.59;;;15.90;61.11
59063;BME280;44851;45.648;9.004;2023-04-29T03:57:47;98771.94;;;15.75;61.33
59063;BME280;44851;45.648;9.004;2023-04-29T04:00:13;98769.41;;;15.81;61.69
59063;BME280;44851;45.648;9.004;2023-04-29T04:02:38;98767.25;;;15.85;61.69
59063;BME280;44851;45.648;9.004;2023-04-29T04:05:04;98768.88;;;15.86;62.19
59063;BME280;44851;45.648;9.004;2023-04-29T04:07:29;98760.94;;;15.71;62.10
59063;BME280;44851;45.648;9.004;2023-04-29T04:09:55;98764.03;;;15.75;62.66
59063;BME280;44851;45.648;9.004;2023-04-29T04:12:20;98760.41;;;15.76;62.37
59063;BME280;44851;45.648;9.004;2023-04-29T04:14:46;98756.72;;;15.85;62.71
59063;BME280;44851;45.648;9.004;2023-04-29T04:17:11;98758.59;;;15.76;62.51
59063;BME280;44851;45.648;9.004;2023-04-29T04:19:37;98757.44;;;15.79;62.28
59063;BME280;44851;45.648;9.004;2023-04-29T04:22:03;98765.38;;;15.71;61.87
59063;BME280;44851;45.648;9.004;2023-04-29T04:24:29;98766.19;;;15.56;61.86
59063;BME280;44851;45.648;9.004;2023-04-29T04:26:54;98773.00;;;15.66;62.36
59063;BME280;44851;45.648;9.004;2023-04-29T04:29:19;98775.75;;;15.72;61.70
59063;BME280;44851;45.648;9.004;2023-04-29T04:31:45;98777.56;;;15.72;61.92
59063;BME280;44851;45.648;9.004;2023-04-29T04:34:10;98780.34;;;15.70;62.08
59063;BME280;44851;45.648;9.004;2023-04-29T04:36:36;98769.84;;;15.70;62.61
59063;BME280;44851;45.648;9.004;2023-04-29T04:39:02;98778.63;;;15.63;62.23
59063;BME280;44851;45.648;9.004;2023-04-29T04:41:27;98786.78;;;15.68;62.26
59063;BME280;44851;45.648;9.004;2023-04-29T04:43:55;98792.94;;;15.75;62.63
59063;BME280;44851;45.648;9.004;2023-04-29T04:46:21;98803.03;;;15.86;62.44
59063;BME280;44851;45.648;9.004;2023-04-29T04:48:46;98800.06;;;15.89;62.75
59063;BME280;44851;45.648;9.004;2023-04-29T04:51:12;98812.22;;;15.90;62.35
59063;BME280;44851;45.648;9.004;2023-04-29T04:53:39;98798.44;;;15.88;62.55
59063;BME280;44851;45.648;9.004;2023-04-29T04:56:05;98803.31;;;15.91;62.78
59063;BME280;44851;45.648;9.004;2023-04-29T04:58:33;98808.84;;;15.96;62.97
59063;BME280;44851;45.648;9.004;2023-04-29T05:00:59;98813.41;;;15.88;62.13
59063;BME280;44851;45.648;9.004;2023-04-29T05:03:28;98817.13;;;15.93;62.24
59063;BME280;44851;45.648;9.004;2023-04-29T05:05:57;98818.66;;;16.02;62.79
59063;BME280;44851;45.648;9.004;2023-04-29T05:08:23;98818.75;;;15.94;62.86
59063;BME280;44851;45.648;9.004;2023-04-29T05:10:49;98817.81;;;15.87;62.47
59063;BME280;44851;45.648;9.004;2023-04-29T05:13:14;98824.44;;;15.83;62.33
59063;BME280;44851;45.648;9.004;2023-04-29T05:15:40;98825.06;;;15.85;62.68
59063;BME280;44851;45.648;9.004;2023-04-29T05:18:06;98816.03;;;16.02;63.12
59063;BME280;44851;45.648;9.004;2023-04-29T05:20:32;98812.00;;;15.77;61.72
59063;BME280;44851;45.648;9.004;2023-04-29T05:22:57;98817.75;;;15.95;63.33
59063;BME280;44851;45.648;9.004;2023-04-29T05:25:23;98826.59;;;15.79;62.27
59063;BME280;44851;45.648;9.004;2023-04-29T05:27:49;98826.34;;;15.89;62.78
59063;BME280;44851;45.648;9.004;2023-04-29T05:30:15;98826.63;;;15.94;62.00
59063;BME280;44851;45.648;9.004;2023-04-29T05:32:42;98830.94;;;15.72;62.74
59063;BME280;44851;45.648;9.004;2023-04-29T05:35:08;98831.66;;;15.81;63.48
59063;BME280;44851;45.648;9.004;2023-04-29T05:37:34;98840.94;;;15.92;63.83
59063;BME280;44851;45.648;9.004;2023-04-29T05:40:00;98842.31;;;16.02;63.86
59063;BME280;44851;45.648;9.004;2023-04-29T05:42:25;98853.84;;;16.01;63.60
59063;BME280;44851;45.648;9.004;2023-04-29T05:44:52;98855.66;;;16.01;63.96
59063;BME280;44851;45.648;9.004;2023-04-29T05:47:20;98858.66;;;16.13;63.45
59063;BME280;44851;45.648;9.004;2023-04-29T05:49:48;98863.00;;;16.05;64.05
59063;BME280;44851;45.648;9.004;2023-04-29T05:52:14;98857.66;;;15.99;65.00
59063;BME280;44851;45.648;9.004;2023-04-29T05:54:41;98863.25;;;15.96;65.32
59063;BME280;44851;45.648;9.004;2023-04-29T05:57:09;98863.34;;;16.02;65.92
59063;BME280;44851;45.648;9.004;2023-04-29T05:59:35;98864.78;;;15.90;66.07
59063;BME280;44851;45.648;9.004;2023-04-29T06:02:00;98861.03;;;15.85;65.53
59063;BME280;44851;45.648;9.004;2023-04-29T06:04:26;98870.06;;;15.82;65.71
59063;BME280;44851;45.648;9.004;2023-04-29T06:06:53;98865.59;;;15.91;66.65
59063;BME280;44851;45.648;9.004;2023-04-29T06:09:21;98860.69;;;15.88;66.31
59063;BME280;44851;45.648;9.004;2023-04-29T06:11:50;98864.91;;;15.74;65.48
59063;BME280;44851;45.648;9.004;2023-04-29T06:14:15;98859.97;;;15.71;65.51
59063;BME280;44851;45.648;9.004;2023-04-29T06:16:41;98852.69;;;15.81;66.80
59063;BME280;44851;45.648;9.004;2023-04-29T06:19:07;98857.22;;;15.72;66.42
59063;BME280;44851;45.648;9.004;2023-04-29T06:21:32;98852.53;;;15.82;66.53
59063;BME280;44851;45.648;9.004;2023-04-29T06:23:57;98852.25;;;15.92;66.79
59063;BME280;44851;45.648;9.004;2023-04-29T06:26:23;98850.63;;;15.91;66.47
59063;BME280;44851;45.648;9.004;2023-04-29T06:28:49;98846.03;;;15.93;65.47
59063;BME280;44851;45.648;9.004;2023-04-29T06:31:15;98855.47;;;16.02;66.71
59063;BME280;44851;45.648;9.004;2023-04-29T06:33:40;98860.44;;;15.97;65.29
59063;BME280;44851;45.648;9.004;2023-04-29T06:36:06;98857.50;;;15.92;65.44
59063;BME280;44851;45.648;9.004;2023-04-29T06:38:32;98861.66;;;16.09;65.92
59063;BME280;44851;45.648;9.004;2023-04-29T06:40:57;98864.81;;;16.05;65.99
59063;BME280;44851;45.648;9.004;2023-04-29T06:43:28;98875.50;;;16.03;67.08
59063;BME280;44851;45.648;9.004;2023-04-29T06:45:54;98880.41;;;16.06;67.47
59063;BME280;44851;45.648;9.004;2023-04-29T06:48:19;98892.25;;;16.02;67.68
59063;BME280;44851;45.648;9.004;2023-04-29T06:50:56;98881.03;;;16.08;67.54
59063;BME280;44851;45.648;9.004;2023-04-29T06:53:22;98882.03;;;16.07;66.78
59063;BME280;44851;45.648;9.004;2023-04-29T06:55:48;98872.34;;;16.08;66.90
59063;BME280;44851;45.648;9.004;2023-04-29T06:58:16;98876.34;;;16.04;66.04
59063;BME280;44851;45.648;9.004;2023-04-29T07:00:46;98884.84;;;16.06;65.83
59063;BME280;44851;45.648;9.004;2023-04-29T07:03:13;98884.38;;;16.02;66.93
59063;BME280;44851;45.648;9.004;2023-04-29T07:05:39;98884.75;;;15.99;67.29
59063;BME280;44851;45.648;9.004;2023-04-29T07:08:06;98888.63;;;16.03;67.30
59063;BME280;44851;45.648;9.004;2023-04-29T07:10:32;98890.44;;;16.03;67.13
59063;BME280;44851;45.648;9.004;2023-04-29T07:12:58;98887.66;;;16.04;67.50
59063;BME280;44851;45.648;9.004;2023-04-29T07:15:25;98884.94;;;16.13;67.68
59063;BME280;44851;45.648;9.004;2023-04-29T07:17:51;98884.94;;;16.13;67.55
59063;BME280;44851;45.648;9.004;2023-04-29T07:20:17;98890.00;;;15.99;67.21
59063;BME280;44851;45.648;9.004;2023-04-29T07:22:42;98889.53;;;15.96;67.32
59063;BME280;44851;45.648;9.004;2023-04-29T07:25:08;98885.19;;;16.03;67.90
59063;BME280;44851;45.648;9.004;2023-04-29T07:27:35;98888.00;;;16.01;68.08
59063;BME280;44851;45.648;9.004;2023-04-29T07:30:01;98891.13;;;16.05;68.15
59063;BME280;44851;45.648;9.004;2023-04-29T07:32:27;98884.59;;;16.16;67.82
59063;BME280;44851;45.648;9.004;2023-04-29T07:34:53;98888.09;;;16.08;67.43
59063;BME280;44851;45.648;9.004;2023-04-29T07:37:18;98897.09;;;16.14;67.22
59063;BME280;44851;45.648;9.004;2023-04-29T07:39:44;98892.56;;;16.07;67.12
59063;BME280;44851;45.648;9.004;2023-04-29T07:42:10;98894.47;;;16.14;67.18
59063;BME280;44851;45.648;9.004;2023-04-29T07:44:35;98894.19;;;16.08;66.88
59063;BME280;44851;45.648;9.004;2023-04-29T07:47:01;98896.06;;;16.23;67.35
59063;BME280;44851;45.648;9.004;2023-04-29T07:49:30;98896.69;;;16.25;67.32
59063;BME280;44851;45.648;9.004;2023-04-29T07:51:55;98894.63;;;16.35;67.44
59063;BME280;44851;45.648;9.004;2023-04-29T07:54:20;98886.69;;;16.43;67.64
59063;BME280;44851;45.648;9.004;2023-04-29T07:56:46;98888.69;;;16.56;67.57
59063;BME280;44851;45.648;9.004;2023-04-29T07:59:12;98891.03;;;16.66;68.27
59063;BME280;44851;45.648;9.004;2023-04-29T08:01:39;98892.78;;;16.73;67.12
59063;BME280;44851;45.648;9.004;2023-04-29T08:04:05;98911.84;;;16.75;67.95
59063;BME280;44851;45.648;9.004;2023-04-29T08:06:31;98916.00;;;16.70;66.98
59063;BME280;44851;45.648;9.004;2023-04-29T08:08:57;98918.19;;;16.81;68.98
59063;BME280;44851;45.648;9.004;2023-04-29T08:11:22;98917.56;;;16.79;68.37
59063;BME280;44851;45.648;9.004;2023-04-29T08:13:48;98919.28;;;16.86;67.65
59063;BME280;44851;45.648;9.004;2023-04-29T08:16:14;98922.44;;;16.82;67.52
59063;BME280;44851;45.648;9.004;2023-04-29T08:18:39;98916.28;;;16.75;66.29
59063;BME280;44851;45.648;9.004;2023-04-29T08:21:05;98916.38;;;16.81;66.83
59063;BME280;44851;45.648;9.004;2023-04-29T08:23:31;98910.22;;;16.89;68.01
59063;BME280;44851;45.648;9.004;2023-04-29T08:25:57;98907.19;;;16.92;67.15
59063;BME280;44851;45.648;9.004;2023-04-29T08:28:22;98907.47;;;16.97;66.94
59063;BME280;44851;45.648;9.004;2023-04-29T08:30:48;98901.75;;;16.94;65.68
59063;BME280;44851;45.648;9.004;2023-04-29T08:33:14;98897.22;;;17.02;66.82
59063;BME280;44851;45.648;9.004;2023-04-29T08:35:40;98887.94;;;17.06;65.93
59063;BME280;44851;45.648;9.004;2023-04-29T08:38:07;98888.41;;;17.10;65.30
59063;BME280;44851;45.648;9.004;2023-04-29T08:40:43;98880.88;;;17.22;65.08
59063;BME280;44851;45.648;9.004;2023-04-29T08:43:12;98888.59;;;17.23;66.75
59063;BME280;44851;45.648;9.004;2023-04-29T08:45:38;98880.56;;;17.31;65.71
59063;BME280;44851;45.648;9.004;2023-04-29T08:48:06;98885.63;;;17.48;66.82
59063;BME280;44851;45.648;9.004;2023-04-29T08:50:38;98884.13;;;17.60;64.77
59063;BME280;44851;45.648;9.004;2023-04-29T08:53:05;98892.34;;;17.72;64.44
59063;BME280;44851;45.648;9.004;2023-04-29T08:55:34;98879.63;;;17.97;64.32
59063;BME280;44851;45.648;9.004;2023-04-29T08:58:01;98879.16;;;18.14;63.28
59063;BME280;44851;45.648;9.004;2023-04-29T09:00:26;98874.16;;;18.82;62.95
59063;BME280;44851;45.648;9.004;2023-04-29T09:02:52;98870.44;;;18.77;62.14
59063;BME280;44851;45.648;9.004;2023-04-29T09:05:20;98867.59;;;18.78;61.43
59063;BME280;44851;45.648;9.004;2023-04-29T09:07:46;98868.19;;;18.74;60.30
59063;BME280;44851;45.648;9.004;2023-04-29T09:10:13;98869.84;;;18.47;59.34
59063;BME280;44851;45.648;9.004;2023-04-29T09:12:40;98869.41;;;18.43;60.52
59063;BME280;44851;45.648;9.004;2023-04-29T09:15:05;98879.59;;;18.46;61.65
59063;BME280;44851;45.648;9.004;2023-04-29T09:23:01;98871.91;;;19.34;60.71
59063;BME280;44851;45.648;9.004;2023-04-29T09:25:28;98867.84;;;19.31;57.03
59063;BME280;44851;45.648;9.004;2023-04-29T09:27:54;98859.31;;;19.36;57.53
59063;BME280;44851;45.648;9.004;2023-04-29T09:30:21;98858.59;;;19.68;56.18
59063;BME280;44851;45.648;9.004;2023-04-29T09:33:06;98865.72;;;19.61;56.09
59063;BME280;44851;45.648;9.004;2023-04-29T09:35:32;98857.69;;;19.35;56.51
59063;BME280;44851;45.648;9.004;2023-04-29T09:38:11;98856.88;;;19.41;56.44
59063;BME280;44851;45.648;9.004;2023-04-29T09:40:38;98854.25;;;19.41;57.30
59063;BME280;44851;45.648;9.004;2023-04-29T09:43:11;98862.25;;;19.67;58.92
59063;BME280;44851;45.648;9.004;2023-04-29T09:45:42;98859.75;;;19.59;55.45
59063;BME280;44851;45.648;9.004;2023-04-29T09:48:10;98865.28;;;19.64;55.30
59063;BME280;44851;45.648;9.004;2023-04-29T09:50:39;98864.72;;;20.02;56.40
59063;BME280;44851;45.648;9.004;2023-04-29T09:53:07;98863.69;;;19.96;55.89
59063;BME280;44851;45.648;9.004;2023-04-29T09:58:33;98859.84;;;19.99;54.17
59063;BME280;44851;45.648;9.004;2023-04-29T10:01:03;98850.88;;;20.20;54.51
59063;BME280;44851;45.648;9.004;2023-04-29T10:03:31;98849.88;;;20.14;53.98
59063;BME280;44851;45.648;9.004;2023-04-29T10:05:59;98840.06;;;20.08;53.21
59063;BME280;44851;45.648;9.004;2023-04-29T10:08:26;98848.03;;;20.41;53.11
59063;BME280;44851;45.648;9.004;2023-04-29T10:10:53;98846.63;;;20.97;57.15
59063;BME280;44851;45.648;9.004;2023-04-29T10:13:25;98851.34;;;20.95;54.93
59063;BME280;44851;45.648;9.004;2023-04-29T10:18:40;98840.25;;;21.11;54.04
59063;BME280;44851;45.648;9.004;2023-04-29T10:21:06;98839.75;;;21.34;56.06
59063;BME280;44851;45.648;9.004;2023-04-29T10:23:34;98825.84;;;21.70;55.94
59063;BME280;44851;45.648;9.004;2023-04-29T10:26:01;98829.25;;;21.77;54.39
59063;BME280;44851;45.648;9.004;2023-04-29T10:28:31;98818.66;;;22.02;54.00
59063;BME280;44851;45.648;9.004;2023-04-29T10:30:59;98816.50;;;21.93;51.28
59063;BME280;44851;45.648;9.004;2023-04-29T10:33:30;98809.44;;;22.05;50.56
59063;BME280;44851;45.648;9.004;2023-04-29T10:35:55;98806.97;;;21.78;49.73
59063;BME280;44851;45.648;9.004;2023-04-29T10:38:30;98805.09;;;21.61;50.09
59063;BME280;44851;45.648;9.004;2023-04-29T10:41:02;98794.63;;;21.41;50.28
59063;BME280;44851;45.648;9.004;2023-04-29T10:43:28;98791.44;;;21.32;50.70
59063;BME280;44851;45.648;9.004;2023-04-29T10:46:28;98803.19;;;21.43;49.52
59063;BME280;44851;45.648;9.004;2023-04-29T10:49:00;98789.66;;;21.51;50.11
59063;BME280;44851;45.648;9.004;2023-04-29T10:51:34;98778.38;;;21.31;49.06
59063;BME280;44851;45.648;9.004;2023-04-29T10:54:08;98770.69;;;21.22;51.12
59063;BME280;44851;45.648;9.004;2023-04-29T10:56:36;98777.03;;;21.46;50.98
59063;BME280;44851;45.648;9.004;2023-04-29T10:59:02;98770.59;;;21.36;49.78
59063;BME280;44851;45.648;9.004;2023-04-29T11:01:47;98768.25;;;21.21;49.66
59063;BME280;44851;45.648;9.004;2023-04-29T11:04:14;98769.13;;;21.40;50.44
59063;BME280;44851;45.648;9.004;2023-04-29T11:06:43;98770.97;;;21.39;49.72
59063;BME280;44851;45.648;9.004;2023-04-29T11:14:22;98757.16;;;21.31;51.90
59063;BME280;44851;45.648;9.004;2023-04-29T11:16:54;98749.47;;;21.22;50.19
59063;BME280;44851;45.648;9.004;2023-04-29T11:19:23;98753.56;;;21.50;50.03
59063;BME280;44851;45.648;9.004;2023-04-29T11:22:12;98750.03;;;22.06;49.75
59063;BME280;44851;45.648;9.004;2023-04-29T11:24:52;98740.06;;;22.20;51.09
59063;BME280;44851;45.648;9.004;2023-04-29T11:27:19;98739.84;;;22.76;48.52
59063;BME280;44851;45.648;9.004;2023-04-29T11:29:45;98741.66;;;23.06;48.20
59063;BME280;44851;45.648;9.004;2023-04-29T11:32:11;98745.25;;;23.42;46.55
59063;BME280;44851;45.648;9.004;2023-04-29T11:34:37;98746.75;;;23.38;45.37
59063;BME280;44851;45.648;9.004;2023-04-29T11:37:04;98744.22;;;23.43;45.54
59063;BME280;44851;45.648;9.004;2023-04-29T11:39:33;98746.31;;;23.41;45.23
59063;BME280;44851;45.648;9.004;2023-04-29T11:42:06;98743.69;;;23.22;45.46
59063;BME280;44851;45.648;9.004;2023-04-29T11:44:34;98733.81;;;23.29;45.35
59063;BME280;44851;45.648;9.004;2023-04-29T11:47:04;98735.09;;;23.74;44.08
59063;BME280;44851;45.648;9.004;2023-04-29T11:49:33;98730.16;;;23.77;43.88
59063;BME280;44851;45.648;9.004;2023-04-29T11:51:59;98740.13;;;23.94;42.80
59063;BME280;44851;45.648;9.004;2023-04-29T11:54:26;98732.34;;;23.69;41.46
59063;BME280;44851;45.648;9.004;2023-04-29T11:56:55;98731.19;;;23.88;43.52
59063;BME280;44851;45.648;9.004;2023-04-29T11:59:21;98739.19;;;23.76;43.57
59063;BME280;44851;45.648;9.004;2023-04-29T12:01:50;98736.34;;;23.48;42.60
59063;BME280;44851;45.648;9.004;2023-04-29T12:04:16;98732.09;;;23.47;42.38
59063;BME280;44851;45.648;9.004;2023-04-29T12:06:42;98733.25;;;23.51;42.85
59063;BME280;44851;45.648;9.004;2023-04-29T12:09:10;98715.91;;;23.60;44.19
59063;BME280;44851;45.648;9.004;2023-04-29T12:11:36;98716.94;;;23.82;45.50
59063;BME280;44851;45.648;9.004;2023-04-29T12:14:03;98715.13;;;23.95;44.24
59063;BME280;44851;45.648;9.004;2023-04-29T12:16:31;98708.84;;;23.89;43.58
59063;BME280;44851;45.648;9.004;2023-04-29T12:18:58;98716.03;;;23.88;44.46
59063;BME280;44851;45.648;9.004;2023-04-29T12:21:23;98703.06;;;23.57;43.90
59063;BME280;44851;45.648;9.004;2023-04-29T12:23:50;98705.25;;;23.48;44.96
59063;BME280;44851;45.648;9.004;2023-04-29T12:26:15;98714.16;;;23.54;43.74
59063;BME280;44851;45.648;9.004;2023-04-29T12:28:43;98716.81;;;23.42;44.93
59063;BME280;44851;45.648;9.004;2023-04-29T12:31:09;98714.03;;;23.37;45.35
59063;BME280;44851;45.648;9.004;2023-04-29T12:33:37;98713.50;;;23.17;44.04
59063;BME280;44851;45.648;9.004;2023-04-29T12:36:15;98714.06;;;23.07;43.66
59063;BME280;44851;45.648;9.004;2023-04-29T12:38:52;98711.94;;;22.86;43.82
59063;BME280;44851;45.648;9.004;2023-04-29T12:41:38;98715.88;;;22.95;45.06
59063;BME280;44851;45.648;9.004;2023-04-29T12:44:04;98718.22;;;23.03;44.87
59063;BME280;44851;45.648;9.004;2023-04-29T12:46:35;98714.50;;;23.34;46.62
59063;BME280;44851;45.648;9.004;2023-04-29T12:49:02;98715.56;;;23.45;43.69
59063;BME280;44851;45.648;9.004;2023-04-29T12:51:29;98715.06;;;23.24;44.47
59063;BME280;44851;45.648;9.004;2023-04-29T12:53:57;98713.94;;;23.02;44.76
59063;BME280;44851;45.648;9.004;2023-04-29T12:56:26;98709.56;;;22.77;44.75
59063;BME280;44851;45.648;9.004;2023-04-29T12:58:52;98712.28;;;23.01;45.97
59063;BME280;44851;45.648;9.004;2023-04-29T13:01:17;98708.03;;;23.00;45.07
59063;BME280;44851;45.648;9.004;2023-04-29T13:03:43;98702.44;;;22.90;44.31
59063;BME280;44851;45.648;9.004;2023-04-29T13:06:08;98704.69;;;22.74;43.43
59063;BME280;44851;45.648;9.004;2023-04-29T13:08:34;98704.16;;;22.84;44.19
59063;BME280;44851;45.648;9.004;2023-04-29T13:10:59;98695.25;;;22.78;44.52
59063;BME280;44851;45.648;9.004;2023-04-29T13:13:25;98690.66;;;22.86;44.51
59063;BME280;44851;45.648;9.004;2023-04-29T13:15:51;98689.69;;;23.22;44.11
59063;BME280;44851;45.648;9.004;2023-04-29T13:18:18;98692.81;;;23.07;44.37
59063;BME280;44851;45.648;9.004;2023-04-29T13:20:44;98688.50;;;22.64;44.65
59063;BME280;44851;45.648;9.004;2023-04-29T13:23:10;98683.63;;;22.61;44.96
59063;BME280;44851;45.648;9.004;2023-04-29T13:25:36;98675.22;;;22.64;44.25
59063;BME280;44851;45.648;9.004;2023-04-29T13:28:02;98671.84;;;22.57;44.86
59063;BME280;44851;45.648;9.004;2023-04-29T13:30:29;98672.25;;;22.72;45.72